createdAt,value
2019-04-28T00:01:24.794Z,95409.50
2019-04-28T00:03:54.700Z,95417.16
2019-04-28T00:06:24.656Z,95400.84
2019-04-28T00:08:54.588Z,95396.87
2019-04-28T00:11:24.559Z,95403.66
2019-04-28T00:13:54.557Z,95402.69
2019-04-28T00:16:24.748Z,95402.66
2019-04-28T00:18:54.617Z,95424.89
2019-04-28T00:21:34.125Z,95426.00
2019-04-28T00:24:13.045Z,95425.84
2019-04-28T00:26:51.939Z,95413.75
2019-04-28T00:29:21.754Z,95408.81
2019-04-28T00:31:51.615Z,95393.48
2019-04-28T00:34:21.614Z,95382.23
2019-04-28T00:36:57.022Z,95382.86
2019-04-28T00:39:27.001Z,95386.38
2019-04-28T00:41:56.898Z,95391.20
2019-04-28T00:44:27.240Z,95392.86
2019-04-28T00:46:57.140Z,95390.81
2019-04-28T00:49:45.143Z,95399.34
2019-04-28T00:52:16.005Z,95404.39
2019-04-28T00:54:46.527Z,95406.22
2019-04-28T00:57:16.776Z,95411.28
2019-04-28T00:59:55.139Z,95419.10
2019-04-28T01:02:31.169Z,95427.40
2019-04-28T01:05:01.847Z,95428.16
2019-04-28T01:07:33.188Z,95423.65
2019-04-28T01:10:04.366Z,95429.87
2019-04-28T01:12:34.472Z,95438.64
2019-04-28T01:15:07.627Z,95432.67
2019-04-28T01:18:03.173Z,95435.03
2019-04-28T01:20:33.157Z,95435.31
2019-04-28T01:23:03.041Z,95441.90
2019-04-28T01:25:32.947Z,95437.66
2019-04-28T01:28:02.788Z,95438.30
2019-04-28T01:30:52.372Z,95444.47
2019-04-28T01:33:32.349Z,95440.53
2019-04-28T01:36:02.231Z,95432.80
2019-04-28T01:38:32.228Z,95449.00
2019-04-28T01:41:02.229Z,95440.05
2019-04-28T01:43:32.098Z,95442.05
2019-04-28T01:46:02.109Z,95435.60
2019-04-28T01:48:32.064Z,95437.25
2019-04-28T01:51:01.955Z,95447.72
2019-04-28T01:53:31.836Z,95449.13
2019-04-28T01:56:01.731Z,95451.61
2019-04-28T01:58:31.671Z,95441.11
2019-04-28T02:01:01.577Z,95444.55
2019-04-28T02:03:31.552Z,95445.38
2019-04-28T02:06:01.555Z,95445.36
2019-04-28T02:08:31.402Z,95455.49
2019-04-28T02:11:01.249Z,95456.38
2019-04-28T02:13:32.314Z,95449.17
2019-04-28T02:16:03.198Z,95452.09
2019-04-28T02:18:33.175Z,95457.63
2019-04-28T02:21:11.242Z,95461.78
2019-04-28T02:23:41.223Z,95455.28
2019-04-28T02:26:11.213Z,95457.88
2019-04-28T02:28:41.130Z,95460.67
2019-04-28T02:31:11.597Z,95459.57
2019-04-28T02:33:41.576Z,95446.80
2019-04-28T02:36:12.343Z,95452.92
2019-04-28T02:38:42.392Z,95454.34
2019-04-28T02:41:12.378Z,95454.62
2019-04-28T02:43:42.300Z,95450.77
2019-04-28T02:46:12.426Z,95456.45
2019-04-28T02:48:42.371Z,95460.35
2019-04-28T02:51:35.879Z,95453.06
2019-04-28T02:54:05.897Z,95451.89
2019-04-28T02:56:35.835Z,95460.13
2019-04-28T02:59:05.764Z,95448.85
2019-04-28T03:01:35.763Z,95449.39
2019-04-28T03:04:05.663Z,95453.86
2019-04-28T03:06:35.637Z,95449.65
2019-04-28T03:09:06.897Z,95455.94
2019-04-28T03:11:36.861Z,95459.29
2019-04-28T03:14:06.854Z,95460.25
2019-04-28T03:16:36.964Z,95468.02
2019-04-28T03:19:06.965Z,95468.83
2019-04-28T03:21:36.929Z,95473.18
2019-04-28T03:24:07.871Z,95460.29
2019-04-28T03:26:44.326Z,95456.92
2019-04-28T03:29:42.386Z,95450.30
2019-04-28T03:32:40.181Z,95448.08
2019-04-28T03:35:02.852Z,95447.14
2019-04-28T03:37:31.569Z,95449.25
2019-04-28T03:40:01.739Z,95446.38
2019-04-28T03:42:32.743Z,95452.09
2019-04-28T03:45:04.331Z,95451.36
2019-04-28T03:47:34.305Z,95451.00
2019-04-28T03:50:04.552Z,95450.66
2019-04-28T03:52:34.508Z,95439.04
2019-04-28T03:55:04.746Z,95440.63
2019-04-28T03:57:34.683Z,95438.58
2019-04-28T04:00:06.376Z,95434.06
2019-04-28T04:02:36.259Z,95426.95
2019-04-28T04:05:10.857Z,95425.86
2019-04-28T04:07:42.727Z,95427.61
2019-04-28T04:10:27.104Z,95424.89
2019-04-28T04:13:11.010Z,95429.79
2019-04-28T04:15:53.528Z,95421.61
2019-04-28T04:18:25.579Z,95427.00
2019-04-28T04:20:55.582Z,95432.32
2019-04-28T04:23:25.520Z,95435.41
2019-04-28T04:25:55.424Z,95437.98
2019-04-28T04:28:25.362Z,95440.45
2019-04-28T04:30:55.349Z,95440.72
2019-04-28T04:33:25.249Z,95436.59
2019-04-28T04:35:55.089Z,95436.02
2019-04-28T04:38:24.944Z,95433.69
2019-04-28T04:40:54.881Z,95421.12
2019-04-28T04:43:24.782Z,95427.48
2019-04-28T04:46:14.561Z,95423.85
2019-04-28T04:48:44.985Z,95422.79
2019-04-28T04:51:15.178Z,95425.51
2019-04-28T04:53:45.095Z,95425.27
2019-04-28T04:56:15.111Z,95419.61
2019-04-28T04:58:45.067Z,95409.69
2019-04-28T05:01:34.008Z,95413.33
2019-04-28T05:04:16.286Z,95411.30
2019-04-28T05:06:46.211Z,95406.36
2019-04-28T05:09:16.218Z,95402.97
2019-04-28T05:11:46.222Z,95395.75
2019-04-28T05:14:16.151Z,95406.40
2019-04-28T05:16:46.148Z,95409.52
2019-04-28T05:19:16.059Z,95409.77
2019-04-28T05:21:45.961Z,95404.96
2019-04-28T05:24:26.170Z,95401.23
2019-04-28T05:26:56.069Z,95402.08
2019-04-28T05:29:28.152Z,95404.61
2019-04-28T05:31:59.880Z,95402.59
2019-04-28T05:34:29.887Z,95405.09
2019-04-28T05:37:00.703Z,95403.50
2019-04-28T05:39:31.890Z,95410.34
2019-04-28T05:42:01.808Z,95411.02
2019-04-28T05:44:32.013Z,95414.14
2019-04-28T05:47:02.129Z,95417.94
2019-04-28T05:50:06.150Z,95411.78
2019-04-28T05:53:00.854Z,95408.17
2019-04-28T05:55:39.333Z,95410.00
2019-04-28T05:58:19.745Z,95410.77
2019-04-28T06:01:00.223Z,95411.91
2019-04-28T06:03:30.787Z,95423.91
2019-04-28T06:06:00.693Z,95417.08
2019-04-28T06:09:01.703Z,95408.54
2019-04-28T06:11:35.282Z,95409.52
2019-04-28T06:14:05.643Z,95406.39
2019-04-28T06:16:35.652Z,95410.56
2019-04-28T06:19:05.577Z,95413.34
2019-04-28T06:21:35.577Z,95413.61
2019-04-28T06:24:05.561Z,95417.01
2019-04-28T06:26:35.465Z,95410.51
2019-04-28T06:29:06.450Z,95409.59
2019-04-28T06:31:36.463Z,95413.63
2019-04-28T06:34:06.502Z,95410.33
2019-04-28T06:36:36.375Z,95411.75
2019-04-28T06:39:08.876Z,95422.95
2019-04-28T06:41:38.844Z,95417.72
2019-04-28T06:44:08.843Z,95404.99
2019-04-28T06:46:38.666Z,95413.86
2019-04-28T06:49:08.593Z,95409.58
2019-04-28T06:51:38.606Z,95408.91
2019-04-28T06:54:08.680Z,95409.08
2019-04-28T06:56:38.650Z,95418.00
2019-04-28T06:59:08.633Z,95420.63
2019-04-28T07:01:38.594Z,95415.37
2019-04-28T07:04:08.446Z,95431.80
2019-04-28T07:06:38.380Z,95420.47
2019-04-28T07:09:08.845Z,95423.55
2019-04-28T07:11:38.791Z,95410.94
2019-04-28T07:14:08.687Z,95407.16
2019-04-28T07:16:38.607Z,95422.01
2019-04-28T07:19:08.534Z,95430.66
2019-04-28T07:21:53.780Z,95427.28
2019-04-28T07:24:23.723Z,95408.91
2019-04-28T07:26:53.711Z,95423.77
2019-04-28T07:29:23.642Z,95426.66
2019-04-28T07:31:53.567Z,95420.98
2019-04-28T07:34:23.514Z,95425.66
2019-04-28T07:36:53.439Z,95414.88
2019-04-28T07:39:23.287Z,95419.80
2019-04-28T07:41:53.285Z,95415.02
2019-04-28T07:44:23.130Z,95417.12
2019-04-28T07:46:53.072Z,95413.91
2019-04-28T07:49:22.916Z,95424.08
2019-04-28T07:52:13.576Z,95419.95
2019-04-28T07:54:43.559Z,95419.72
2019-04-28T07:57:13.576Z,95429.84
2019-04-28T07:59:43.391Z,95413.48
2019-04-28T08:02:13.440Z,95413.84
2019-04-28T08:04:43.433Z,95425.27
2019-04-28T08:07:13.416Z,95423.64
2019-04-28T08:09:43.318Z,95422.76
2019-04-28T08:12:13.340Z,95430.63
2019-04-28T08:14:43.336Z,95426.02
2019-04-28T08:17:13.166Z,95439.84
2019-04-28T08:19:43.153Z,95428.67
2019-04-28T08:22:13.070Z,95436.27
2019-04-28T08:24:44.061Z,95428.24
2019-04-28T08:27:14.026Z,95412.11
2019-04-28T08:29:44.025Z,95431.19
2019-04-28T08:32:39.359Z,95422.89
2019-04-28T08:35:09.731Z,95414.93
2019-04-28T08:37:40.726Z,95418.75
2019-04-28T08:40:10.805Z,95420.61
2019-04-28T08:42:40.700Z,95422.89
2019-04-28T08:45:10.691Z,95421.84
2019-04-28T08:47:40.540Z,95424.36
2019-04-28T08:50:10.776Z,95415.20
2019-04-28T08:52:40.769Z,95435.26
2019-04-28T08:55:10.917Z,95426.06
2019-04-28T08:57:40.905Z,95428.08
2019-04-28T09:00:11.895Z,95428.75
2019-04-28T09:02:41.805Z,95444.59
2019-04-28T09:05:12.004Z,95432.34
2019-04-28T09:07:41.841Z,95435.57
2019-04-28T09:10:11.837Z,95437.86
2019-04-28T09:12:41.755Z,95434.86
2019-04-28T09:15:12.248Z,95431.55
2019-04-28T09:17:42.226Z,95425.96
2019-04-28T09:20:13.214Z,95414.63
2019-04-28T09:22:43.153Z,95415.84
2019-04-28T09:25:13.143Z,95413.34
2019-04-28T09:27:42.982Z,95412.27
2019-04-28T09:30:13.428Z,95407.83
2019-04-28T09:32:43.439Z,95406.97
2019-04-28T09:35:13.754Z,95413.65
2019-04-28T09:37:43.732Z,95405.70
2019-04-28T09:40:16.103Z,95403.03
2019-04-28T09:43:17.196Z,95393.87
2019-04-28T09:45:55.955Z,95401.73
2019-04-28T09:48:25.883Z,95396.74
2019-04-28T09:50:55.918Z,95397.48
2019-04-28T09:53:25.886Z,95394.38
2019-04-28T09:55:55.873Z,95401.86
2019-04-28T09:58:25.781Z,95396.87
2019-04-28T10:00:55.728Z,95406.39
2019-04-28T10:03:25.687Z,95407.77
2019-04-28T10:05:55.660Z,95414.09
2019-04-28T10:08:25.615Z,95402.59
2019-04-28T10:10:55.539Z,95405.50
2019-04-28T10:13:25.592Z,95401.45
2019-04-28T10:15:55.629Z,95392.70
2019-04-28T10:18:25.555Z,95397.96
2019-04-28T10:20:55.455Z,95399.44
2019-04-28T10:23:25.389Z,95397.88
2019-04-28T10:25:55.376Z,95390.22
2019-04-28T10:28:25.401Z,95396.50
2019-04-28T10:30:55.407Z,95385.76
2019-04-28T10:33:25.398Z,95388.50
2019-04-28T10:35:55.328Z,95389.66
2019-04-28T10:38:25.323Z,95378.11
2019-04-28T10:41:11.977Z,95368.73
2019-04-28T10:43:41.926Z,95368.88
2019-04-28T10:46:11.921Z,95360.36
2019-04-28T10:48:41.924Z,95364.98
2019-04-28T10:51:11.850Z,95356.12
2019-04-28T10:53:41.790Z,95343.77
2019-04-28T10:56:11.810Z,95353.84
2019-04-28T10:58:44.276Z,95351.45
2019-04-28T11:01:14.199Z,95351.77
2019-04-28T11:03:46.139Z,95351.79
2019-04-28T11:06:16.111Z,95352.37
2019-04-28T11:09:04.088Z,95347.14
2019-04-28T11:11:35.695Z,95340.66
2019-04-28T11:14:05.811Z,95345.45
2019-04-28T11:16:36.655Z,95339.94
2019-04-28T11:19:07.778Z,95345.21
2019-04-28T11:21:37.854Z,95343.67
2019-04-28T11:24:08.127Z,95348.28
2019-04-28T11:26:38.139Z,95348.55
2019-04-28T11:29:08.206Z,95349.06
2019-04-28T11:31:38.192Z,95348.74
2019-04-28T11:34:39.438Z,95350.47
2019-04-28T11:37:09.365Z,95349.09
2019-04-28T11:39:41.094Z,95345.00
2019-04-28T11:42:11.115Z,95343.05
2019-04-28T11:44:41.126Z,95349.59
2019-04-28T11:47:13.542Z,95353.67
2019-04-28T11:49:43.680Z,95353.45
2019-04-28T11:52:13.650Z,95351.87
2019-04-28T11:54:43.871Z,95352.41
2019-04-28T11:57:13.808Z,95346.34
2019-04-28T11:59:43.943Z,95350.89
2019-04-28T12:02:13.954Z,95353.09
2019-04-28T12:04:44.073Z,95349.46
2019-04-28T12:07:14.119Z,95348.62
2019-04-28T12:10:03.754Z,95340.91
2019-04-28T12:12:58.747Z,95336.63
2019-04-28T12:15:45.724Z,95340.08
2019-04-28T12:18:37.559Z,95326.36
2019-04-28T12:21:07.517Z,95327.02
2019-04-28T12:23:38.446Z,95332.39
2019-04-28T12:26:08.398Z,95330.92
2019-04-28T12:28:38.248Z,95329.30
2019-04-28T12:31:08.347Z,95333.27
2019-04-28T12:33:39.866Z,95330.14
2019-04-28T12:36:09.991Z,95339.69
2019-04-28T12:38:39.928Z,95328.22
2019-04-28T12:41:09.874Z,95331.68
2019-04-28T12:43:39.794Z,95326.86
2019-04-28T12:46:09.708Z,95328.37
2019-04-28T12:48:39.617Z,95324.52
2019-04-28T12:51:09.754Z,95323.38
2019-04-28T12:53:39.953Z,95325.70
2019-04-28T12:56:09.903Z,95319.38
2019-04-28T12:58:39.918Z,95317.30
2019-04-28T13:01:21.528Z,95326.10
2019-04-28T13:04:13.496Z,95320.96
2019-04-28T13:07:00.705Z,95313.64
2019-04-28T13:09:30.742Z,95313.34
2019-04-28T13:12:00.850Z,95305.34
2019-04-28T13:14:30.832Z,95308.38
2019-04-28T13:17:00.793Z,95309.12
2019-04-28T13:19:30.743Z,95312.16
2019-04-28T13:22:00.715Z,95309.84
2019-04-28T13:24:30.677Z,95309.42
2019-04-28T13:27:00.582Z,95309.30
2019-04-28T13:29:30.532Z,95304.08
2019-04-28T13:32:00.592Z,95303.82
2019-04-28T13:34:32.185Z,95302.33
2019-04-28T13:37:02.191Z,95294.45
2019-04-28T13:39:40.223Z,95295.95
2019-04-28T13:42:10.162Z,95292.09
2019-04-28T13:44:56.847Z,95288.92
2019-04-28T13:47:26.783Z,95291.99
2019-04-28T13:50:01.665Z,95283.81
2019-04-28T13:52:31.630Z,95284.03
2019-04-28T13:55:22.630Z,95286.12
2019-04-28T13:57:52.678Z,95282.63
2019-04-28T14:00:29.542Z,95288.48
2019-04-28T14:03:12.239Z,95285.92
2019-04-28T14:05:56.500Z,95282.86
2019-04-28T14:08:26.425Z,95281.07
2019-04-28T14:10:56.485Z,95282.96
2019-04-28T14:13:27.436Z,95277.30
2019-04-28T14:15:57.485Z,95278.38
2019-04-28T14:18:27.416Z,95274.19
2019-04-28T14:20:57.477Z,95277.16
2019-04-28T14:23:27.596Z,95274.52
2019-04-28T14:25:57.603Z,95282.32
2019-04-28T14:28:27.513Z,95277.80
2019-04-28T14:30:57.433Z,95269.63
2019-04-28T14:33:27.358Z,95277.04
2019-04-28T14:35:57.464Z,95270.83
2019-04-28T14:38:27.499Z,95278.83
2019-04-28T14:40:58.633Z,95273.77
2019-04-28T14:43:28.515Z,95274.86
2019-04-28T14:45:58.387Z,95291.70
2019-04-28T14:48:28.444Z,95277.28
2019-04-28T14:50:58.486Z,95289.31
2019-04-28T14:53:28.449Z,95283.47
2019-04-28T14:55:58.457Z,95277.14
2019-04-28T14:58:28.396Z,95281.27
2019-04-28T15:01:03.731Z,95281.41
2019-04-28T15:03:35.341Z,95285.94
2019-04-28T15:06:30.104Z,95289.94
2019-04-28T15:09:21.653Z,95298.25
2019-04-28T15:11:57.792Z,95285.63
2019-04-28T15:14:27.797Z,95296.78
2019-04-28T15:16:57.711Z,95292.28
2019-04-28T15:19:27.644Z,95296.77
2019-04-28T15:21:57.982Z,95286.69
2019-04-28T15:24:29.456Z,95289.06
2019-04-28T15:26:59.440Z,95295.02
2019-04-28T15:29:29.277Z,95293.23
2019-04-28T15:31:59.195Z,95285.94
2019-04-28T15:34:29.116Z,95292.77
2019-04-28T15:37:09.513Z,95288.13
2019-04-28T15:39:30.702Z,95287.33
2019-04-28T15:42:00.731Z,95295.29
2019-04-28T15:44:30.658Z,95291.28
2019-04-28T15:47:00.636Z,95294.34
2019-04-28T15:49:30.546Z,95291.44
2019-04-28T15:52:00.509Z,95290.08
2019-04-28T15:54:30.479Z,95289.68
2019-04-28T15:57:00.386Z,95283.97
2019-04-28T15:59:30.304Z,95298.51
2019-04-28T16:02:00.326Z,95284.66
2019-04-28T16:04:30.196Z,95287.14
2019-04-28T16:07:00.202Z,95284.09
2019-04-28T16:09:30.166Z,95285.61
2019-04-28T16:12:00.116Z,95288.88
2019-04-28T16:14:30.268Z,95294.76
2019-04-28T16:17:00.298Z,95286.67
2019-04-28T16:19:31.332Z,95296.53
2019-04-28T16:22:01.234Z,95290.19
2019-04-28T16:24:31.171Z,95285.69
2019-04-28T16:27:00.996Z,95283.78
2019-04-28T16:29:30.829Z,95287.80
2019-04-28T16:32:00.824Z,95305.39
2019-04-28T16:34:30.817Z,95283.73
2019-04-28T16:37:01.839Z,95286.30
2019-04-28T16:39:31.760Z,95291.16
2019-04-28T16:42:02.737Z,95294.27
2019-04-28T16:44:33.678Z,95291.88
2019-04-28T16:47:03.696Z,95287.36
2019-04-28T16:49:33.608Z,95292.97
2019-04-28T16:52:03.547Z,95291.09
2019-04-28T16:54:33.541Z,95300.22
2019-04-28T16:57:10.420Z,95309.89
2019-04-28T16:59:50.236Z,95299.92
2019-04-28T17:02:31.569Z,95308.24
2019-04-28T17:05:01.480Z,95308.07
2019-04-28T17:07:31.496Z,95306.89
2019-04-28T17:10:01.445Z,95307.75
2019-04-28T17:12:31.342Z,95312.72
2019-04-28T17:15:01.250Z,95320.41
2019-04-28T17:17:31.621Z,95332.11
2019-04-28T17:20:01.639Z,95331.97
2019-04-28T17:22:32.820Z,95328.58
2019-04-28T17:25:02.796Z,95325.93
2019-04-28T17:27:33.037Z,95321.84
2019-04-28T17:30:03.323Z,95320.22
2019-04-28T17:32:34.300Z,95322.59
2019-04-28T17:35:04.308Z,95327.31
2019-04-28T17:37:34.211Z,95332.66
2019-04-28T17:40:04.799Z,95324.62
2019-04-28T17:42:36.304Z,95330.11
2019-04-28T17:45:06.774Z,95331.25
2019-04-28T17:47:36.728Z,95335.78
2019-04-28T17:50:07.123Z,95340.42
2019-04-28T17:52:37.084Z,95336.19
2019-04-28T17:55:07.188Z,95339.67
2019-04-28T17:57:38.025Z,95339.84
2019-04-28T18:00:21.497Z,95340.75
2019-04-28T18:03:14.456Z,95337.42
2019-04-28T18:05:58.965Z,95341.05
2019-04-28T18:08:28.862Z,95345.98
2019-04-28T18:10:58.856Z,95351.05
2019-04-28T18:13:28.754Z,95348.75
2019-04-28T18:16:23.448Z,95348.47
2019-04-28T18:19:00.107Z,95358.84
2019-04-28T18:21:30.006Z,95360.17
2019-04-28T18:23:59.900Z,95365.91
2019-04-28T18:26:29.870Z,95374.00
2019-04-28T18:28:59.795Z,95378.23
2019-04-28T18:31:48.707Z,95379.02
2019-04-28T18:34:40.520Z,95386.59
2019-04-28T18:37:20.686Z,95382.65
2019-04-28T18:40:04.447Z,95398.02
2019-04-28T18:42:42.504Z,95394.94
2019-04-28T18:45:13.092Z,95401.98
2019-04-28T18:47:43.092Z,95401.47
2019-04-28T18:50:13.089Z,95404.58
2019-04-28T18:52:42.996Z,95408.75
2019-04-28T18:55:13.079Z,95404.68
2019-04-28T18:57:43.144Z,95403.27
2019-04-28T19:00:13.211Z,95411.94
2019-04-28T19:02:45.449Z,95420.87
2019-04-28T19:05:15.557Z,95426.09
2019-04-28T19:08:13.639Z,95427.16
2019-04-28T19:10:51.136Z,95434.80
2019-04-28T19:13:24.708Z,95436.51
2019-04-28T19:16:05.845Z,95439.45
2019-04-28T19:18:37.936Z,95445.61
2019-04-28T19:21:07.843Z,95441.30
2019-04-28T19:23:38.905Z,95445.02
2019-04-28T19:26:08.879Z,95448.25
2019-04-28T19:28:38.761Z,95438.81
2019-04-28T19:31:08.586Z,95442.95
2019-04-28T19:33:38.554Z,95438.44
2019-04-28T19:36:08.457Z,95444.55
2019-04-28T19:38:38.269Z,95438.69
2019-04-28T19:41:08.200Z,95443.75
2019-04-28T19:43:38.129Z,95448.17
2019-04-28T19:46:11.228Z,95446.95
2019-04-28T19:48:41.113Z,95445.02
2019-04-28T19:51:11.008Z,95450.85
2019-04-28T19:53:40.900Z,95445.36
2019-04-28T19:56:20.844Z,95446.30
2019-04-28T19:58:55.205Z,95447.21
2019-04-28T20:01:27.009Z,95451.41
2019-04-28T20:03:56.982Z,95453.21
2019-04-28T20:06:26.939Z,95446.22
2019-04-28T20:08:56.906Z,95452.15
2019-04-28T20:11:26.913Z,95452.53
2019-04-28T20:13:57.978Z,95455.91
2019-04-28T20:16:27.827Z,95454.48
2019-04-28T20:18:58.815Z,95457.02
2019-04-28T20:21:28.793Z,95463.44
2019-04-28T20:23:58.700Z,95460.86
2019-04-28T20:26:28.790Z,95461.14
2019-04-28T20:28:58.611Z,95461.14
2019-04-28T20:31:28.881Z,95460.37
2019-04-28T20:33:58.905Z,95464.37
2019-04-28T20:36:39.557Z,95462.10
2019-04-28T20:39:14.164Z,95463.69
2019-04-28T20:41:45.660Z,95460.45
2019-04-28T20:44:15.523Z,95466.17
2019-04-28T20:46:45.445Z,95469.83
2019-04-28T20:49:15.290Z,95472.36
2019-04-28T20:51:45.106Z,95472.08
2019-04-28T20:54:15.035Z,95476.08
2019-04-28T20:56:44.924Z,95478.80
2019-04-28T20:59:15.989Z,95473.91
2019-04-28T21:01:45.994Z,95468.66
2019-04-28T21:04:15.812Z,95464.09
2019-04-28T21:06:45.689Z,95475.77
2019-04-28T21:09:15.583Z,95471.13
2019-04-28T21:11:45.508Z,95472.55
2019-04-28T21:14:15.434Z,95474.72
2019-04-28T21:16:45.354Z,95482.45
2019-04-28T21:19:15.189Z,95478.58
2019-04-28T21:21:45.098Z,95482.58
2019-04-28T21:24:16.967Z,95474.48
2019-04-28T21:26:46.540Z,95479.44
2019-04-28T21:29:16.442Z,95476.25
2019-04-28T21:31:46.443Z,95476.64
2019-04-28T21:34:16.279Z,95475.77
2019-04-28T21:36:46.186Z,95476.41
2019-04-28T21:39:16.108Z,95477.34
2019-04-28T21:41:45.961Z,95476.70
2019-04-28T21:44:40.837Z,95473.92
2019-04-28T21:47:17.613Z,95470.00
2019-04-28T21:49:47.590Z,95467.53
2019-04-28T21:52:17.497Z,95465.92
2019-04-28T21:54:47.344Z,95468.59
2019-04-28T21:57:17.234Z,95468.98
2019-04-28T21:59:47.126Z,95469.03
2019-04-28T22:02:17.032Z,95464.75
2019-04-28T22:04:47.243Z,95471.47
2019-04-28T22:07:17.315Z,95471.83
2019-04-28T22:09:47.142Z,95467.88
2019-04-28T22:12:16.990Z,95470.05
2019-04-28T22:14:46.867Z,95466.02
2019-04-28T22:17:16.786Z,95463.58
2019-04-28T22:19:46.742Z,95465.59
2019-04-28T22:22:16.657Z,95463.59
2019-04-28T22:24:52.517Z,95460.27
2019-04-28T22:27:27.651Z,95460.72
2019-04-28T22:29:57.650Z,95458.10
2019-04-28T22:32:28.452Z,95452.84
2019-04-28T22:34:58.417Z,95449.91
2019-04-28T22:37:28.309Z,95457.70
2019-04-28T22:39:58.138Z,95450.87
2019-04-28T22:42:28.164Z,95452.92
2019-04-28T22:44:58.082Z,95451.23
2019-04-28T22:47:27.985Z,95452.17
2019-04-28T22:49:57.919Z,95445.13
2019-04-28T22:52:27.866Z,95449.30
2019-04-28T22:55:16.748Z,95453.41
2019-04-28T22:57:59.116Z,95447.52
2019-04-28T23:00:57.306Z,95450.95
2019-04-28T23:03:55.519Z,95451.97
2019-04-28T23:06:25.706Z,95457.08
2019-04-28T23:08:55.654Z,95448.34
2019-04-28T23:11:25.681Z,95448.92
2019-04-28T23:13:55.658Z,95453.45
2019-04-28T23:16:25.626Z,95452.99
2019-04-28T23:18:55.865Z,95452.27
2019-04-28T23:21:39.277Z,95458.86
2019-04-28T23:24:09.308Z,95460.66
2019-04-28T23:26:39.184Z,95451.27
2019-04-28T23:29:09.176Z,95459.77
2019-04-28T23:31:39.085Z,95456.63
2019-04-28T23:34:08.969Z,95457.95
2019-04-28T23:36:38.949Z,95447.23
2019-04-28T23:39:09.304Z,95454.30
2019-04-28T23:42:02.475Z,95448.65
2019-04-28T23:44:32.463Z,95451.88
2019-04-28T23:47:03.760Z,95444.08
2019-04-28T23:49:33.649Z,95443.86
2019-04-28T23:52:25.292Z,95444.69
2019-04-28T23:54:57.213Z,95441.34
2019-04-28T23:57:27.124Z,95441.08
2019-04-28T23:59:56.937Z,95441.13
